METAR Data
IDs: Format: Raw Decoded Include TAF

Data at: 0629 UTC 23 Feb 2019

PAUT 230615Z AUTO 13024G30KT 5SM BR OVC004 04/04 A2986 RMK AO2 T00400036
PAUT 230555Z AUTO 13026G34KT 3SM -DZ OVC004 04/04 A2986 RMK AO2 T00400037 10062 20040
PAUT 230535Z AUTO 14025G33KT 3SM -DZ OVC004 04/04 A2986 RMK AO2 T00430039
PAUT 230515Z AUTO 13026KT 3SM -RA OVC004 04/04 A2985 RMK AO2 T00430038
PAUT 230455Z AUTO 13025G30KT 5SM BR OVC004 05/04 A2985 RMK AO2 T00450040
PAUT 230435Z AUTO 13022G30KT 3SM BR OVC004 05/04 A2986 RMK AO2 T00460040
PAUT 230415Z AUTO 13020G31KT 7SM OVC008 05/04 A2986 RMK AO2 T00510044
PAUT 230355Z AUTO 14023G27KT 10SM OVC008 06/05 A2986 RMK AO2 T00550045
PAUT 230335Z AUTO 14025G30KT 10SM OVC010 06/05 A2986 RMK AO2 T00550045
PAUT 230315Z AUTO 15024G30KT 10SM BKN007 OVC013 06/05 A2987 RMK AO2 T00560047
PAUT 230255Z AUTO 15022G29KT 10SM OVC007 06/05 A2987 RMK AO2 T00550045
PAUT 230235Z AUTO 15022G28KT 10SM OVC009 06/05 A2987 RMK AO2 T00550046
PAUT 230215Z AUTO 14021G34KT 10SM OVC009 06/05 A2987 RMK AO2 T00570048
PAUT 230155Z AUTO 15019G26KT 10SM OVC009 06/05 A2987 RMK AO2 T00600050
PAUT 230135Z AUTO 14021G30KT 10SM OVC009 06/05 A2987 RMK AO2 T00580049
PAUT 230115Z AUTO 15023G30KT 10SM OVC011 06/05 A2987 RMK AO2 T00600051
PAUT 230055Z AUTO 15024G32KT 10SM OVC011 06/05 A2987 RMK AO2 T00600052
PAUT 230035Z AUTO 14028G35KT 7SM OVC007 06/05 A2986 RMK AO2 T00600052
PAUT 230015Z AUTO 15024G33KT 7SM OVC007 06/05 A2987 RMK AO2 T00580052
PAUT 222355Z AUTO 15024G33KT 5SM -RA OVC007 06/05 A2987 RMK AO2 60003 T00560050 10056 20030
PAUT 222335Z AUTO 15027G34KT 4SM BR OVC009 05/05 A2988 RMK AO2 T00520047
PAUT 222315Z AUTO 13025G34KT 3SM BR OVC009 05/05 A2989 RMK AO2 T00500046
PAUT 222255Z AUTO 13027G32KT 3SM BR OVC005 05/04 A2990 RMK AO2 P0001 T00460042
PAUT 222235Z AUTO 13027G34KT 4SM BR OVC005 05/04 A2991 RMK AO2 P0001 T00450040
PAUT 222215Z AUTO 12025G31KT 3SM -RA OVC005 04/04 A2992 RMK AO2 P0001 T00430038
PAUT 222155Z AUTO 12022G31KT 3SM -RA OVC005 04/04 A2993 RMK AO2 P0002 T00420037
PAUT 222135Z AUTO 13027G33KT 3SM -DZ OVC005 04/04 A2993 RMK AO2 P0001 T00410035
PAUT 222115Z AUTO 13024G32KT 2SM -DZ OVC007 04/03 A2994 RMK AO2 P0001 T00400033
PAUT 222055Z AUTO 13026G34KT 2 1/2SM -DZ BKN007 OVC011 04/03 A2994 RMK AO2 T00400031
PAUT 222035Z AUTO 13023G28KT 5SM -DZ BKN009 OVC015 04/03 A2996 RMK AO2 T00370028
PAUT 222015Z AUTO 13023G31KT 7SM BKN009 BKN014 OVC019 04/03 A2996 RMK AO2 T00360025
PAUT 221955Z AUTO 14028G32KT 10SM BKN009 OVC014 04/02 A2995 RMK AO2 T00350023
PAUT 221935Z AUTO 13023G26KT 10SM OVC009 04/02 A2996 RMK AO2 T00350021
PAUT 221915Z AUTO 13021G28KT 10SM BKN009 OVC016 03/02 A2997 RMK AO2 T00320017
PAUT 221855Z AUTO 14020KT 10SM OVC011 03/02 A2996 RMK AO2 T00320015
PAUT 221835Z AUTO 14021G25KT 10SM BKN008 OVC013 03/01 A2997 RMK AO2 T00310011
PAUT 221815Z AUTO 14018G23KT 7SM OVC010 03/01 A2997 RMK AO2 T00310007
PAUT 221755Z AUTO 14018G28KT 10SM BKN012 OVC018 03/00 A2998 RMK AO2 T00310003 10032 20027
PAUT 221735Z AUTO 14020KT 10SM OVC018 03/00 A2999 RMK AO2 T00320000
PAUT 221715Z AUTO 14016G20KT 10SM BKN019 OVC026 03/00 A3000 RMK AO2 T00311002
PAUT 221655Z AUTO 15018G22KT 10SM BKN024 OVC030 03/M01 A3001 RMK AO2 T00311007
PAUT 221635Z AUTO 14016G20KT 10SM BKN027 OVC033 03/M01 A3002 RMK AO2 T00301011
PAUT 221615Z AUTO 15018G23KT 10SM SCT026 OVC033 03/M01 A3002 RMK AO2 T00301015
PAUT 221555Z AUTO 15022G28KT 10SM OVC031 03/M02 A3002 RMK AO2 T00301018
PAUT 221535Z AUTO 15022G29KT 10SM OVC031 03/M02 A3003 RMK AO2 T00301021
PAUT 221515Z AUTO 15022G27KT 10SM OVC029 03/M02 A3004 RMK AO2 T00291019
PAUT 221455Z AUTO 17020G27KT 10SM OVC031 03/M02 A3005 RMK AO2 T00301022
PAUT 221435Z AUTO 16021G28KT 10SM OVC031 03/M02 A3006 RMK AO2 T00301017
PAUT 221415Z AUTO 16025G31KT 10SM OVC029 03/M02 A3006 RMK AO2 T00301018
PAUT 221355Z AUTO 17019G26KT 10SM OVC029 03/M02 A3007 RMK AO2 T00301016
PAUT 221335Z AUTO 16023G28KT 10SM OVC029 03/M02 A3008 RMK AO2 T00301017
PAUT 221315Z AUTO 17020G28KT 10SM OVC029 03/M02 A3008 RMK AO2 T00281019
PAUT 221255Z AUTO 17023G29KT 10SM OVC029 03/M02 A3008 RMK AO2 T00271016
PAUT 221235Z AUTO 16024G28KT 10SM OVC029 03/M02 A3009 RMK AO2 T00281018
PAUT 221215Z AUTO 16018G22KT 10SM OVC029 03/M02 A3010 RMK AO2 T00301016
PAUT 221155Z AUTO 17022G25KT 10SM OVC029 03/M02 A3010 RMK AO2 T00301017 10030 20023
PAUT 221135Z AUTO 17019G29KT 10SM OVC029 03/M02 A3012 RMK AO2 T00271020
PAUT 221115Z AUTO 17017G26KT 10SM OVC027 03/M02 A3012 RMK AO2 T00281016
PAUT 221055Z AUTO 17020G29KT 10SM OVC027 03/M02 A3012 RMK AO2 T00281018
PAUT 221035Z AUTO 17021G30KT 10SM OVC027 03/M02 A3012 RMK AO2 T00261019
PAUT 221015Z AUTO 17020G27KT 10SM OVC027 03/M02 A3013 RMK AO2 T00271016
PAUT 220955Z AUTO 17023G28KT 10SM OVC029 03/M02 A3013 RMK AO2 T00261020
PAUT 220935Z AUTO 17023G27KT 10SM OVC029 03/M02 A3014 RMK AO2 T00261020
PAUT 220915Z AUTO 17021G28KT 10SM OVC031 03/M02 A3014 RMK AO2 T00251022
PAUT 220855Z AUTO 18017G28KT 10SM OVC031 03/M02 A3015 RMK AO2 T00251025 400341008
PAUT 220835Z AUTO 18020G31KT 10SM OVC031 03/M02 A3015 RMK AO2 T00251024
PAUT 220815Z AUTO 17021G28KT 10SM OVC031 03/M02 A3016 RMK AO2 T00251023
PAUT 220755Z AUTO 18024G30KT 10SM OVC031 03/M02 A3015 RMK AO2 T00251025
PAUT 220735Z AUTO 18019G29KT 10SM OVC033 03/M02 A3016 RMK AO2 T00251021
PAUT 220715Z AUTO 17023G27KT 10SM OVC033 03/M02 A3016 RMK AO2 T00251021
PAUT 220655Z AUTO 18020G28KT 10SM BKN030 BKN036 02/M02 A3017 RMK AO2 T00241025
PAUT 220635Z AUTO 18021G26KT 10SM BKN030 03/M02 A3017 RMK AO2 T00251020
PAUT 220615Z AUTO 18023G30KT 10SM BKN032 03/M02 A3017 RMK AO2 T00251025
PAUT 220555Z AUTO 17023G28KT 10SM OVC032 03/M03 A3017 RMK AO2 T00251026 10031 20025
PAUT 220535Z AUTO 17023G29KT 10SM OVC032 03/M03 A3017 RMK AO2 T00251026
PAUT 220515Z AUTO 17021G28KT 10SM OVC030 03/M03 A3017 RMK AO2 T00261026
PAUT 220455Z AUTO 17019G26KT 10SM OVC032 03/M02 A3018 RMK AO2 T00261022
PAUT 220435Z AUTO 18019G25KT 10SM OVC034 03/M02 A3019 RMK AO2 T00261023
PAUT 220415Z AUTO 18016G24KT 10SM OVC036 03/M03 A3020 RMK AO2 T00261027
PAUT 220355Z AUTO 19022G27KT 10SM BKN034 03/M03 A3019 RMK AO2 T00261029
PAUT 220335Z AUTO 19022G29KT 10SM OVC033 03/M03 A3020 RMK AO2 T00281026
PAUT 220315Z AUTO 18020G27KT 10SM OVC033 03/M02 A3020 RMK AO2 T00281024
PAUT 220255Z AUTO 19025G30KT 10SM OVC035 03/M02 A3020 RMK AO2 T00291024
PAUT 220235Z AUTO 19023G29KT 10SM OVC035 03/M02 A3021 RMK AO2 T00301024
PAUT 220215Z AUTO 19023G29KT 10SM OVC033 03/M03 A3021 RMK AO2 T00281026
PAUT 220155Z AUTO 19027G33KT 10SM BKN033 03/M02 A3020 RMK AO2 T00291025
PAUT 220135Z AUTO 19028G33KT 10SM BKN033 03/M03 A3020 RMK AO2 T00281032
PAUT 220115Z AUTO 19027G32KT 10SM OVC033 03/M02 A3020 RMK AO2 T00301023
PAUT 220055Z AUTO 19022G29KT 10SM BKN033 03/M02 A3022 RMK AO2 T00301024
PAUT 220035Z AUTO 18025G31KT 10SM SCT035 03/M03 A3022 RMK AO2 T00281033
PAUT 220015Z AUTO 18026G33KT 10SM BKN035 03/M03 A3022 RMK AO2 T00301028
PAUT 212355Z AUTO 18022G27KT 10SM SCT037 03/M03 A3024 RMK AO2 T00311026 10034 20004
PAUT 212335Z AUTO 18023G29KT 10SM SCT038 SCT050 03/M03 A3025 RMK AO2 T00321026
PAUT 212315Z AUTO 18020G27KT 10SM SCT038 SCT050 03/M03 A3027 RMK AO2 T00331029
PAUT 212255Z AUTO 19027KT 10SM SCT038 03/M02 A3026 RMK AO2 T00321022
PAUT 212235Z AUTO 18018G26KT 10SM OVC035 03/M02 A3027 RMK AO2 T00311020
PAUT 212215Z AUTO 19022G26KT 10SM BKN035 OVC046 03/M02 A3027 RMK AO2 T00321020
PAUT 212155Z AUTO 18016G19KT 10SM SCT034 SCT040 BKN046 03/M02 A3028 RMK AO2 T00321021
PAUT 212135Z AUTO 18015G23KT 10SM SCT031 SCT038 BKN044 03/M03 A3029 RMK AO2 T00301030
PAUT 212115Z AUTO 18018KT 10SM SCT031 SCT037 BKN043 03/M02 A3029 RMK AO2 T00301023
PAUT 212055Z AUTO 19018KT 10SM SCT034 SCT041 BKN047 03/M03 A3029 RMK AO2 T00311026
PAUT 212035Z AUTO 19014G17KT 10SM SCT029 SCT037 OVC045 03/M02 A3030 RMK AO2 T00291017
PAUT 212015Z AUTO 20011KT 10SM SCT036 OVC045 03/M01 A3031 RMK AO2 T00311015
PAUT 211955Z AUTO 19012KT 10SM SCT029 SCT036 BKN043 03/M01 A3032 RMK AO2 T00331015
PAUT 211935Z AUTO 19013KT 10SM SCT029 SCT035 03/M02 A3032 RMK AO2 T00261019
PAUT 211915Z AUTO 19012KT 10SM SCT029 03/M02 A3032 RMK AO2 T00251020
PAUT 211855Z AUTO 19011KT 10SM SCT029 02/M02 A3032 RMK AO2 T00221025
PAUT 211835Z AUTO 20011KT 10SM CLR 02/M03 A3032 RMK AO2 T00181030